sensor_id;sensor_type;location;lat;lon;timestamp;temperature;humidity
77277;DHT22;66330;52.166;9.978;2023-08-21T00:21:29;22.20;64.50
77277;DHT22;66330;52.166;9.978;2023-08-21T00:23:55;22.10;64.60
77277;DHT22;66330;52.166;9.978;2023-08-21T00:28:47;21.80;64.50
77277;DHT22;66330;52.166;9.978;2023-08-21T00:31:13;22.00;64.90
77277;DHT22;66330;52.166;9.978;2023-08-21T00:38:30;21.60;65.20
77277;DHT22;66330;52.166;9.978;2023-08-21T00:45:49;21.70;66.20
77277;DHT22;66330;52.166;9.978;2023-08-21T00:48:16;21.20;65.90
77277;DHT22;66330;52.166;9.978;2023-08-21T00:50:42;21.50;66.50
77277;DHT22;66330;52.166;9.978;2023-08-21T01:05:22;21.20;67.00
77277;DHT22;66330;52.166;9.978;2023-08-21T01:07:53;21.00;66.90
77277;DHT22;66330;52.166;9.978;2023-08-21T01:15:46;21.00;67.40
77277;DHT22;66330;52.166;9.978;2023-08-21T01:18:13;21.10;67.80
77277;DHT22;66330;52.166;9.978;2023-08-21T01:30:25;20.90;68.20
77277;DHT22;66330;52.166;9.978;2023-08-21T01:33:06;21.00;68.60
77277;DHT22;66330;52.166;9.978;2023-08-21T01:35:35;20.60;68.40
77277;DHT22;66330;52.166;9.978;2023-08-21T01:38:02;20.60;68.80
77277;DHT22;66330;52.166;9.978;2023-08-21T02:14:35;20.30;70.70
77277;DHT22;66330;52.166;9.978;2023-08-21T02:21:53;20.30;70.70
77277;DHT22;66330;52.166;9.978;2023-08-21T02:38:55;20.30;70.40
77277;DHT22;66330;52.166;9.978;2023-08-21T03:05:40;19.80;70.40
77277;DHT22;66330;52.166;9.978;2023-08-21T03:08:06;20.10;70.70
77277;DHT22;66330;52.166;9.978;2023-08-21T03:30:06;19.80;71.10
77277;DHT22;66330;52.166;9.978;2023-08-21T04:01:44;19.80;72.00
77277;DHT22;66330;52.166;9.978;2023-08-21T04:06:36;19.70;72.10
77277;DHT22;66330;52.166;9.978;2023-08-21T04:13:58;19.50;72.60
77277;DHT22;66330;52.166;9.978;2023-08-21T04:16:24;19.50;74.20
77277;DHT22;66330;52.166;9.978;2023-08-21T04:18:50;19.40;73.80
77277;DHT22;66330;52.166;9.978;2023-08-21T04:21:15;19.40;74.10
77277;DHT22;66330;52.166;9.978;2023-08-21T04:23:41;19.20;74.10
77277;DHT22;66330;52.166;9.978;2023-08-21T04:26:06;19.20;74.30
77277;DHT22;66330;52.166;9.978;2023-08-21T04:28:33;19.00;74.40
77277;DHT22;66330;52.166;9.978;2023-08-21T04:30:59;19.10;74.70
77277;DHT22;66330;52.166;9.978;2023-08-21T04:33:28;19.10;74.90
77277;DHT22;66330;52.166;9.978;2023-08-21T04:35:54;19.10;75.00
77277;DHT22;66330;52.166;9.978;2023-08-21T04:38:19;19.10;75.10
77277;DHT22;66330;52.166;9.978;2023-08-21T04:40:45;19.20;75.20
77277;DHT22;66330;52.166;9.978;2023-08-21T04:43:10;19.70;75.80
77277;DHT22;66330;52.166;9.978;2023-08-21T04:45:36;19.20;75.10
77277;DHT22;66330;52.166;9.978;2023-08-21T04:48:04;19.50;75.60
77277;DHT22;66330;52.166;9.978;2023-08-21T04:50:30;19.30;75.40
77277;DHT22;66330;52.166;9.978;2023-08-21T04:52:55;19.40;75.40
77277;DHT22;66330;52.166;9.978;2023-08-21T04:55:21;19.80;75.70
77277;DHT22;66330;52.166;9.978;2023-08-21T04:57:46;19.50;75.90
77277;DHT22;66330;52.166;9.978;2023-08-21T05:00:12;19.50;74.90
77277;DHT22;66330;52.166;9.978;2023-08-21T05:02:38;19.60;74.90
77277;DHT22;66330;52.166;9.978;2023-08-21T05:05:04;20.10;75.40
77277;DHT22;66330;52.166;9.978;2023-08-21T05:07:30;19.70;74.90
77277;DHT22;66330;52.166;9.978;2023-08-21T05:09:59;20.30;75.50
77277;DHT22;66330;52.166;9.978;2023-08-21T05:12:25;19.60;74.50
77277;DHT22;66330;52.166;9.978;2023-08-21T05:14:51;20.00;74.80
77277;DHT22;66330;52.166;9.978;2023-08-21T05:17:16;20.00;74.60
77277;DHT22;66330;52.166;9.978;2023-08-21T05:19:42;20.10;74.60
77277;DHT22;66330;52.166;9.978;2023-08-21T05:22:08;20.20;74.60
77277;DHT22;66330;52.166;9.978;2023-08-21T05:24:33;20.10;74.30
77277;DHT22;66330;52.166;9.978;2023-08-21T05:26:59;20.60;75.20
77277;DHT22;66330;52.166;9.978;2023-08-21T05:29:25;20.80;74.00
77277;DHT22;66330;52.166;9.978;2023-08-21T05:31:50;21.00;73.60
77277;DHT22;66330;52.166;9.978;2023-08-21T05:34:16;21.10;73.20
77277;DHT22;66330;52.166;9.978;2023-08-21T05:36:42;21.20;72.80
77277;DHT22;66330;52.166;9.978;2023-08-21T05:39:07;21.30;72.50
77277;DHT22;66330;52.166;9.978;2023-08-21T05:41:33;21.50;72.30
77277;DHT22;66330;52.166;9.978;2023-08-21T05:43:59;21.40;71.80
77277;DHT22;66330;52.166;9.978;2023-08-21T05:46:24;21.50;71.40
77277;DHT22;66330;52.166;9.978;2023-08-21T05:48:50;21.40;70.90
77277;DHT22;66330;52.166;9.978;2023-08-21T05:51:15;21.50;71.00
77277;DHT22;66330;52.166;9.978;2023-08-21T05:53:41;21.60;70.90
77277;DHT22;66330;52.166;9.978;2023-08-21T05:56:06;21.60;70.30
77277;DHT22;66330;52.166;9.978;2023-08-21T05:58:32;21.70;69.90
77277;DHT22;66330;52.166;9.978;2023-08-21T06:00:58;21.80;69.80
77277;DHT22;66330;52.166;9.978;2023-08-21T06:03:24;22.20;69.60
77277;DHT22;66330;52.166;9.978;2023-08-21T06:05:49;22.50;69.10
77277;DHT22;66330;52.166;9.978;2023-08-21T06:08:15;22.90;68.40
77277;DHT22;66330;52.166;9.978;2023-08-21T06:10:40;23.30;67.70
77277;DHT22;66330;52.166;9.978;2023-08-21T06:13:06;23.80;66.90
77277;DHT22;66330;52.166;9.978;2023-08-21T06:15:32;24.30;66.20
77277;DHT22;66330;52.166;9.978;2023-08-21T06:17:58;24.60;65.20
77277;DHT22;66330;52.166;9.978;2023-08-21T06:20:24;25.00;64.20
77277;DHT22;66330;52.166;9.978;2023-08-21T06:22:49;25.40;63.30
77277;DHT22;66330;52.166;9.978;2023-08-21T06:25:15;28.20;64.30
77277;DHT22;66330;52.166;9.978;2023-08-21T06:27:41;26.20;61.20
77277;DHT22;66330;52.166;9.978;2023-08-21T06:30:07;26.70;60.30
77277;DHT22;66330;52.166;9.978;2023-08-21T06:32:33;26.70;59.30
77277;DHT22;66330;52.166;9.978;2023-08-21T06:34:58;26.90;58.90
77277;DHT22;66330;52.166;9.978;2023-08-21T06:37:24;26.90;58.80
77277;DHT22;66330;52.166;9.978;2023-08-21T06:39:50;27.00;58.40
77277;DHT22;66330;52.166;9.978;2023-08-21T06:42:15;27.10;58.30
77277;DHT22;66330;52.166;9.978;2023-08-21T06:44:41;27.30;57.90
77277;DHT22;66330;52.166;9.978;2023-08-21T06:47:07;27.60;57.40
77277;DHT22;66330;52.166;9.978;2023-08-21T06:49:32;28.00;56.90
77277;DHT22;66330;52.166;9.978;2023-08-21T06:51:58;28.40;56.30
77277;DHT22;66330;52.166;9.978;2023-08-21T06:56:50;29.60;53.30
77277;DHT22;66330;52.166;9.978;2023-08-21T07:04:07;30.40;51.40
77277;DHT22;66330;52.166;9.978;2023-08-21T07:33:24;29.70;49.90
77277;DHT22;66330;52.166;9.978;2023-08-21T07:36:01;29.70;49.80
77277;DHT22;66330;52.166;9.978;2023-08-21T07:38:27;29.60;50.60
77277;DHT22;66330;52.166;9.978;2023-08-21T07:41:05;29.50;50.70
77277;DHT22;66330;52.166;9.978;2023-08-21T07:43:33;29.50;50.70
77277;DHT22;66330;52.166;9.978;2023-08-21T07:46:02;29.60;50.80
77277;DHT22;66330;52.166;9.978;2023-08-21T07:48:28;29.70;50.50
77277;DHT22;66330;52.166;9.978;2023-08-21T07:50:53;29.80;50.30
77277;DHT22;66330;52.166;9.978;2023-08-21T07:53:19;29.80;50.10
77277;DHT22;66330;52.166;9.978;2023-08-21T07:55:45;29.80;49.90
77277;DHT22;66330;52.166;9.978;2023-08-21T07:58:11;29.80;49.70
77277;DHT22;66330;52.166;9.978;2023-08-21T08:00:38;29.90;49.40
77277;DHT22;66330;52.166;9.978;2023-08-21T08:03:04;29.90;49.50
77277;DHT22;66330;52.166;9.978;2023-08-21T08:05:31;30.30;49.40
77277;DHT22;66330;52.166;9.978;2023-08-21T08:07:57;30.60;48.80
77277;DHT22;66330;52.166;9.978;2023-08-21T08:10:24;30.80;48.30
77277;DHT22;66330;52.166;9.978;2023-08-21T08:12:49;31.10;48.20
77277;DHT22;66330;52.166;9.978;2023-08-21T08:15:15;31.60;48.00
77277;DHT22;66330;52.166;9.978;2023-08-21T08:17:40;31.70;47.60
77277;DHT22;66330;52.166;9.978;2023-08-21T08:20:06;32.20;47.10
77277;DHT22;66330;52.166;9.978;2023-08-21T08:22:32;32.40;46.20
77277;DHT22;66330;52.166;9.978;2023-08-21T08:24:57;32.60;45.80
77277;DHT22;66330;52.166;9.978;2023-08-21T08:27:23;32.90;45.50
77277;DHT22;66330;52.166;9.978;2023-08-21T08:29:49;33.00;45.10
77277;DHT22;66330;52.166;9.978;2023-08-21T08:32:15;33.20;44.90
77277;DHT22;66330;52.166;9.978;2023-08-21T08:34:40;33.10;44.50
77277;DHT22;66330;52.166;9.978;2023-08-21T08:37:06;33.00;44.20
77277;DHT22;66330;52.166;9.978;2023-08-21T08:39:31;33.00;44.30
77277;DHT22;66330;52.166;9.978;2023-08-21T08:42:06;32.80;44.00
77277;DHT22;66330;52.166;9.978;2023-08-21T08:44:35;32.60;43.60
77277;DHT22;66330;52.166;9.978;2023-08-21T08:47:03;32.50;43.80
77277;DHT22;66330;52.166;9.978;2023-08-21T08:49:29;32.60;44.00
77277;DHT22;66330;52.166;9.978;2023-08-21T08:51:55;33.00;43.80
77277;DHT22;66330;52.166;9.978;2023-08-21T08:54:23;33.20;43.00
77277;DHT22;66330;52.166;9.978;2023-08-21T08:56:50;33.30;42.40
77277;DHT22;66330;52.166;9.978;2023-08-21T08:59:16;33.30;42.30
77277;DHT22;66330;52.166;9.978;2023-08-21T09:01:42;33.40;42.30
77277;DHT22;66330;52.166;9.978;2023-08-21T09:04:08;33.60;42.30
77277;DHT22;66330;52.166;9.978;2023-08-21T09:35:55;34.90;38.20
77277;DHT22;66330;52.166;9.978;2023-08-21T09:38:21;34.80;38.90
77277;DHT22;66330;52.166;9.978;2023-08-21T09:43:17;35.00;37.80
77277;DHT22;66330;52.166;9.978;2023-08-21T09:45:47;35.00;37.80
77277;DHT22;66330;52.166;9.978;2023-08-21T09:48:14;35.20;37.90
77277;DHT22;66330;52.166;9.978;2023-08-21T09:53:07;35.90;37.10
77277;DHT22;66330;52.166;9.978;2023-08-21T10:00:33;36.90;35.50
77277;DHT22;66330;52.166;9.978;2023-08-21T10:05:34;36.90;35.00
77277;DHT22;66330;52.166;9.978;2023-08-21T10:08:01;36.80;35.60
77277;DHT22;66330;52.166;9.978;2023-08-21T10:10:30;36.80;35.30
77277;DHT22;66330;52.166;9.978;2023-08-21T10:12:56;36.90;35.00
77277;DHT22;66330;52.166;9.978;2023-08-21T10:15:22;37.00;34.80
77277;DHT22;66330;52.166;9.978;2023-08-21T10:17:47;37.10;35.00
77277;DHT22;66330;52.166;9.978;2023-08-21T10:20:24;37.20;34.40
77277;DHT22;66330;52.166;9.978;2023-08-21T10:22:54;37.40;34.20
77277;DHT22;66330;52.166;9.978;2023-08-21T10:25:22;37.70;34.20
77277;DHT22;66330;52.166;9.978;2023-08-21T10:27:51;37.80;33.60
77277;DHT22;66330;52.166;9.978;2023-08-21T10:30:25;37.70;33.50
77277;DHT22;66330;52.166;9.978;2023-08-21T10:32:52;38.00;33.80
77277;DHT22;66330;52.166;9.978;2023-08-21T10:35:23;38.40;33.60
77277;DHT22;66330;52.166;9.978;2023-08-21T10:38:15;38.60;32.70
77277;DHT22;66330;52.166;9.978;2023-08-21T10:41:07;38.60;31.90
77277;DHT22;66330;52.166;9.978;2023-08-21T10:43:46;38.80;31.70
77277;DHT22;66330;52.166;9.978;2023-08-21T10:46:12;39.30;31.50
77277;DHT22;66330;52.166;9.978;2023-08-21T10:51:07;40.70;30.30
77277;DHT22;66330;52.166;9.978;2023-08-21T10:53:33;40.90;30.20
77277;DHT22;66330;52.166;9.978;2023-08-21T10:56:05;41.50;29.70
77277;DHT22;66330;52.166;9.978;2023-08-21T10:58:38;42.10;29.10
77277;DHT22;66330;52.166;9.978;2023-08-21T11:01:04;42.60;28.60
77277;DHT22;66330;52.166;9.978;2023-08-21T11:03:29;42.70;28.20
77277;DHT22;66330;52.166;9.978;2023-08-21T11:06:02;42.70;28.10
77277;DHT22;66330;52.166;9.978;2023-08-21T11:10:54;43.90;26.70
77277;DHT22;66330;52.166;9.978;2023-08-21T11:15:49;43.80;26.10
77277;DHT22;66330;52.166;9.978;2023-08-21T12:10:37;43.40;25.60
77277;DHT22;66330;52.166;9.978;2023-08-21T12:15:29;43.40;25.10
77277;DHT22;66330;52.166;9.978;2023-08-21T12:17:54;43.40;25.00
77277;DHT22;66330;52.166;9.978;2023-08-21T12:20:20;42.80;25.60
77277;DHT22;66330;52.166;9.978;2023-08-21T12:22:46;42.20;25.80
77277;DHT22;66330;52.166;9.978;2023-08-21T13:30:59;46.50;23.40
77277;DHT22;66330;52.166;9.978;2023-08-21T13:55:22;47.00;22.00
77277;DHT22;66330;52.166;9.978;2023-08-21T14:00:14;47.20;21.70
77277;DHT22;66330;52.166;9.978;2023-08-21T14:05:08;47.10;21.40
77277;DHT22;66330;52.166;9.978;2023-08-21T14:44:11;42.00;22.90
77277;DHT22;66330;52.166;9.978;2023-08-21T15:27:59;35.40;27.60
77277;DHT22;66330;52.166;9.978;2023-08-21T15:59:42;33.50;29.70
77277;DHT22;66330;52.166;9.978;2023-08-21T16:02:08;33.50;30.20
77277;DHT22;66330;52.166;9.978;2023-08-21T16:04:34;33.40;30.50
77277;DHT22;66330;52.166;9.978;2023-08-21T16:06:59;33.20;30.70
77277;DHT22;66330;52.166;9.978;2023-08-21T16:09:25;33.10;30.90
77277;DHT22;66330;52.166;9.978;2023-08-21T16:11:50;32.90;31.10
77277;DHT22;66330;52.166;9.978;2023-08-21T16:14:16;32.80;31.20
77277;DHT22;66330;52.166;9.978;2023-08-21T16:16:43;32.60;31.40
77277;DHT22;66330;52.166;9.978;2023-08-21T16:19:08;32.50;31.50
77277;DHT22;66330;52.166;9.978;2023-08-21T16:21:36;32.30;31.60
77277;DHT22;66330;52.166;9.978;2023-08-21T16:24:01;32.10;32.00
77277;DHT22;66330;52.166;9.978;2023-08-21T16:26:27;32.10;32.40
77277;DHT22;66330;52.166;9.978;2023-08-21T16:28:53;31.90;32.50
77277;DHT22;66330;52.166;9.978;2023-08-21T16:31:19;31.80;32.70
77277;DHT22;66330;52.166;9.978;2023-08-21T16:33:44;31.60;32.70
77277;DHT22;66330;52.166;9.978;2023-08-21T16:36:10;31.50;32.90
77277;DHT22;66330;52.166;9.978;2023-08-21T16:38:35;31.40;33.00
77277;DHT22;66330;52.166;9.978;2023-08-21T16:41:01;31.20;33.10
77277;DHT22;66330;52.166;9.978;2023-08-21T16:43:27;31.10;33.20
77277;DHT22;66330;52.166;9.978;2023-08-21T16:45:53;30.90;33.40
77277;DHT22;66330;52.166;9.978;2023-08-21T16:48:19;30.80;33.60
77277;DHT22;66330;52.166;9.978;2023-08-21T16:50:45;30.70;33.70
77277;DHT22;66330;52.166;9.978;2023-08-21T16:53:11;30.50;33.80
77277;DHT22;66330;52.166;9.978;2023-08-21T16:55:36;30.40;33.90
77277;DHT22;66330;52.166;9.978;2023-08-21T16:58:02;30.30;34.10
77277;DHT22;66330;52.166;9.978;2023-08-21T17:00:28;30.20;34.30
77277;DHT22;66330;52.166;9.978;2023-08-21T17:02:53;30.10;34.70
77277;DHT22;66330;52.166;9.978;2023-08-21T17:05:19;30.00;34.90
77277;DHT22;66330;52.166;9.978;2023-08-21T17:07:45;29.90;35.00
77277;DHT22;66330;52.166;9.978;2023-08-21T17:10:11;29.80;35.20
77277;DHT22;66330;52.166;9.978;2023-08-21T17:12:37;29.70;35.40
77277;DHT22;66330;52.166;9.978;2023-08-21T17:15:03;29.60;35.50
77277;DHT22;66330;52.166;9.978;2023-08-21T17:17:30;29.50;35.70
77277;DHT22;66330;52.166;9.978;2023-08-21T17:19:56;29.50;36.00
77277;DHT22;66330;52.166;9.978;2023-08-21T17:22:23;29.40;36.20
77277;DHT22;66330;52.166;9.978;2023-08-21T17:24:49;29.30;36.40
77277;DHT22;66330;52.166;9.978;2023-08-21T17:27:14;29.20;36.60
77277;DHT22;66330;52.166;9.978;2023-08-21T17:29:40;29.10;36.90
77277;DHT22;66330;52.166;9.978;2023-08-21T17:32:13;29.10;37.20
77277;DHT22;66330;52.166;9.978;2023-08-21T17:34:39;29.10;37.50
77277;DHT22;66330;52.166;9.978;2023-08-21T17:37:05;29.00;37.60
77277;DHT22;66330;52.166;9.978;2023-08-21T17:39:31;28.90;37.70
77277;DHT22;66330;52.166;9.978;2023-08-21T17:41:57;28.90;37.90
77277;DHT22;66330;52.166;9.978;2023-08-21T17:44:22;28.80;38.20
77277;DHT22;66330;52.166;9.978;2023-08-21T17:46:48;28.80;38.30
77277;DHT22;66330;52.166;9.978;2023-08-21T17:49:15;28.70;38.50
77277;DHT22;66330;52.166;9.978;2023-08-21T17:51:40;28.60;38.70
77277;DHT22;66330;52.166;9.978;2023-08-21T17:54:06;28.50;38.90
77277;DHT22;66330;52.166;9.978;2023-08-21T17:56:31;28.40;39.10
77277;DHT22;66330;52.166;9.978;2023-08-21T17:58:57;28.30;39.40
77277;DHT22;66330;52.166;9.978;2023-08-21T18:01:22;28.20;39.60
77277;DHT22;66330;52.166;9.978;2023-08-21T18:03:48;28.10;39.90
77277;DHT22;66330;52.166;9.978;2023-08-21T18:06:14;28.00;40.10
77277;DHT22;66330;52.166;9.978;2023-08-21T18:08:40;27.90;40.30
77277;DHT22;66330;52.166;9.978;2023-08-21T18:11:05;27.80;40.50
77277;DHT22;66330;52.166;9.978;2023-08-21T18:13:33;27.70;40.70
77277;DHT22;66330;52.166;9.978;2023-08-21T18:15:59;27.60;40.90
77277;DHT22;66330;52.166;9.978;2023-08-21T18:18:24;27.60;41.20
77277;DHT22;66330;52.166;9.978;2023-08-21T18:20:52;27.50;41.40
77277;DHT22;66330;52.166;9.978;2023-08-21T18:23:21;27.40;41.50
77277;DHT22;66330;52.166;9.978;2023-08-21T18:25:47;27.40;41.70
77277;DHT22;66330;52.166;9.978;2023-08-21T18:28:13;27.30;41.80
77277;DHT22;66330;52.166;9.978;2023-08-21T18:30:41;27.20;41.90
77277;DHT22;66330;52.166;9.978;2023-08-21T18:33:10;27.10;42.10
77277;DHT22;66330;52.166;9.978;2023-08-21T18:35:36;27.10;42.20
77277;DHT22;66330;52.166;9.978;2023-08-21T18:38:04;27.00;42.30
77277;DHT22;66330;52.166;9.978;2023-08-21T18:40:30;26.90;42.50
77277;DHT22;66330;52.166;9.978;2023-08-21T18:42:56;26.80;42.60
77277;DHT22;66330;52.166;9.978;2023-08-21T18:45:21;26.70;42.70
77277;DHT22;66330;52.166;9.978;2023-08-21T18:47:47;27.10;43.80
77277;DHT22;66330;52.166;9.978;2023-08-21T18:50:12;26.50;43.10
77277;DHT22;66330;52.166;9.978;2023-08-21T18:52:38;26.40;43.30
77277;DHT22;66330;52.166;9.978;2023-08-21T18:55:04;26.30;43.40
77277;DHT22;66330;52.166;9.978;2023-08-21T18:57:31;26.30;43.70
77277;DHT22;66330;52.166;9.978;2023-08-21T18:59:57;26.20;44.00
77277;DHT22;66330;52.166;9.978;2023-08-21T19:02:22;26.10;44.20
77277;DHT22;66330;52.166;9.978;2023-08-21T19:04:48;26.00;44.40
77277;DHT22;66330;52.166;9.978;2023-08-21T19:07:13;25.80;44.60
77277;DHT22;66330;52.166;9.978;2023-08-21T19:09:39;25.90;44.90
77277;DHT22;66330;52.166;9.978;2023-08-21T19:12:05;25.90;45.10
77277;DHT22;66330;52.166;9.978;2023-08-21T19:14:30;25.90;45.40
77277;DHT22;66330;52.166;9.978;2023-08-21T19:16:56;25.80;45.50
77277;DHT22;66330;52.166;9.978;2023-08-21T19:19:21;25.80;45.70
77277;DHT22;66330;52.166;9.978;2023-08-21T19:21:48;25.70;45.90
77277;DHT22;66330;52.166;9.978;2023-08-21T19:24:14;25.70;46.20
77277;DHT22;66330;52.166;9.978;2023-08-21T19:26:40;25.60;46.30
77277;DHT22;66330;52.166;9.978;2023-08-21T19:29:05;25.50;46.60
77277;DHT22;66330;52.166;9.978;2023-08-21T19:31:31;25.40;46.80
77277;DHT22;66330;52.166;9.978;2023-08-21T19:33:56;25.40;47.10
77277;DHT22;66330;52.166;9.978;2023-08-21T19:36:22;25.30;47.40
77277;DHT22;66330;52.166;9.978;2023-08-21T19:38:50;25.10;47.50
77277;DHT22;66330;52.166;9.978;2023-08-21T19:41:17;25.20;47.80
77277;DHT22;66330;52.166;9.978;2023-08-21T19:43:43;25.10;47.90
77277;DHT22;66330;52.166;9.978;2023-08-21T19:46:12;25.10;48.10
77277;DHT22;66330;52.166;9.978;2023-08-21T19:48:38;25.00;48.30
77277;DHT22;66330;52.166;9.978;2023-08-21T19:51:04;24.90;48.30
77277;DHT22;66330;52.166;9.978;2023-08-21T19:53:30;24.40;48.20
77277;DHT22;66330;52.166;9.978;2023-08-21T19:55:55;24.80;48.60
77277;DHT22;66330;52.166;9.978;2023-08-21T19:58:21;24.70;48.80
77277;DHT22;66330;52.166;9.978;2023-08-21T20:00:48;24.70;49.00
77277;DHT22;66330;52.166;9.978;2023-08-21T20:03:14;24.60;49.10
77277;DHT22;66330;52.166;9.978;2023-08-21T20:05:39;24.50;49.20
77277;DHT22;66330;52.166;9.978;2023-08-21T20:08:05;24.40;49.40
77277;DHT22;66330;52.166;9.978;2023-08-21T20:10:31;24.40;49.70
77277;DHT22;66330;52.166;9.978;2023-08-21T20:12:57;24.30;49.90
77277;DHT22;66330;52.166;9.978;2023-08-21T20:15:22;24.20;50.10
77277;DHT22;66330;52.166;9.978;2023-08-21T20:17:48;24.20;50.30
77277;DHT22;66330;52.166;9.978;2023-08-21T20:20:13;24.10;51.00
77277;DHT22;66330;52.166;9.978;2023-08-21T20:22:40;24.10;50.70
77277;DHT22;66330;52.166;9.978;2023-08-21T20:25:06;24.00;50.80
77277;DHT22;66330;52.166;9.978;2023-08-21T20:27:34;24.00;51.10
77277;DHT22;66330;52.166;9.978;2023-08-21T20:30:01;24.00;51.20
77277;DHT22;66330;52.166;9.978;2023-08-21T20:32:28;23.90;51.40
77277;DHT22;66330;52.166;9.978;2023-08-21T20:34:55;24.00;51.60
77277;DHT22;66330;52.166;9.978;2023-08-21T20:37:22;24.00;51.80
77277;DHT22;66330;52.166;9.978;2023-08-21T20:39:47;23.90;51.70
77277;DHT22;66330;52.166;9.978;2023-08-21T20:42:13;23.40;51.50
77277;DHT22;66330;52.166;9.978;2023-08-21T20:44:38;23.80;52.00
77277;DHT22;66330;52.166;9.978;2023-08-21T20:47:05;23.80;52.20
77277;DHT22;66330;52.166;9.978;2023-08-21T20:49:31;23.70;52.40
77277;DHT22;66330;52.166;9.978;2023-08-21T20:52:03;23.70;52.60
77277;DHT22;66330;52.166;9.978;2023-08-21T20:54:29;23.60;52.70
77277;DHT22;66330;52.166;9.978;2023-08-21T20:56:54;23.50;52.80
77277;DHT22;66330;52.166;9.978;2023-08-21T20:59:20;23.50;52.80
77277;DHT22;66330;52.166;9.978;2023-08-21T21:01:45;23.30;52.70
77277;DHT22;66330;52.166;9.978;2023-08-21T21:04:11;23.40;53.00
77277;DHT22;66330;52.166;9.978;2023-08-21T21:06:37;23.30;53.10
77277;DHT22;66330;52.166;9.978;2023-08-21T21:09:02;23.30;52.70
77277;DHT22;66330;52.166;9.978;2023-08-21T21:11:32;23.30;53.30
77277;DHT22;66330;52.166;9.978;2023-08-21T21:13:57;23.30;53.40
77277;DHT22;66330;52.166;9.978;2023-08-21T21:16:23;23.40;53.50
77277;DHT22;66330;52.166;9.978;2023-08-21T21:18:49;23.40;53.60
77277;DHT22;66330;52.166;9.978;2023-08-21T21:21:14;23.50;53.70
77277;DHT22;66330;52.166;9.978;2023-08-21T21:23:40;23.50;53.70
77277;DHT22;66330;52.166;9.978;2023-08-21T21:26:05;23.50;53.60
77277;DHT22;66330;52.166;9.978;2023-08-21T21:28:31;23.50;53.60
77277;DHT22;66330;52.166;9.978;2023-08-21T21:30:57;23.60;53.50
77277;DHT22;66330;52.166;9.978;2023-08-21T21:33:24;23.60;53.50
77277;DHT22;66330;52.166;9.978;2023-08-21T21:35:50;23.60;53.50
77277;DHT22;66330;52.166;9.978;2023-08-21T21:38:15;23.70;53.50
77277;DHT22;66330;52.166;9.978;2023-08-21T21:40:41;23.70;53.30
77277;DHT22;66330;52.166;9.978;2023-08-21T21:43:07;23.70;53.20
77277;DHT22;66330;52.166;9.978;2023-08-21T21:45:34;23.70;53.20
77277;DHT22;66330;52.166;9.978;2023-08-21T21:48:00;23.80;53.20
77277;DHT22;66330;52.166;9.978;2023-08-21T21:50:26;23.80;53.10
77277;DHT22;66330;52.166;9.978;2023-08-21T21:52:52;23.80;53.20
77277;DHT22;66330;52.166;9.978;2023-08-21T21:55:17;23.80;53.10
77277;DHT22;66330;52.166;9.978;2023-08-21T21:57:43;23.80;53.10
77277;DHT22;66330;52.166;9.978;2023-08-21T22:00:09;23.80;53.10
77277;DHT22;66330;52.166;9.978;2023-08-21T22:02:36;23.80;53.00
77277;DHT22;66330;52.166;9.978;2023-08-21T22:05:03;23.80;53.00
77277;DHT22;66330;52.166;9.978;2023-08-21T22:07:29;23.80;53.00
77277;DHT22;66330;52.166;9.978;2023-08-21T22:09:55;23.80;53.10
77277;DHT22;66330;52.166;9.978;2023-08-21T22:12:20;23.80;53.00
77277;DHT22;66330;52.166;9.978;2023-08-21T22:14:46;23.80;53.00
77277;DHT22;66330;52.166;9.978;2023-08-21T22:17:12;23.80;52.90
77277;DHT22;66330;52.166;9.978;2023-08-21T22:19:37;23.90;52.90
77277;DHT22;66330;52.166;9.978;2023-08-21T22:22:05;23.80;52.80
77277;DHT22;66330;52.166;9.978;2023-08-21T22:24:31;23.80;52.80
77277;DHT22;66330;52.166;9.978;2023-08-21T22:26:56;23.80;52.90
77277;DHT22;66330;52.166;9.978;2023-08-21T22:29:22;23.80;52.90
77277;DHT22;66330;52.166;9.978;2023-08-21T22:31:48;23.80;52.80
77277;DHT22;66330;52.166;9.978;2023-08-21T22:34:13;23.80;52.80
77277;DHT22;66330;52.166;9.978;2023-08-21T22:36:40;23.80;52.80
77277;DHT22;66330;52.166;9.978;2023-08-21T22:39:05;23.80;52.90
77277;DHT22;66330;52.166;9.978;2023-08-21T22:41:31;23.80;52.80
77277;DHT22;66330;52.166;9.978;2023-08-21T22:43:57;23.80;52.90
77277;DHT22;66330;52.166;9.978;2023-08-21T22:46:23;23.80;52.90
77277;DHT22;66330;52.166;9.978;2023-08-21T22:48:48;23.80;52.90
77277;DHT22;66330;52.166;9.978;2023-08-21T22:51:14;23.70;52.90
77277;DHT22;66330;52.166;9.978;2023-08-21T22:53:39;23.80;53.00
77277;DHT22;66330;52.166;9.978;2023-08-21T22:56:05;23.80;53.00
77277;DHT22;66330;52.166;9.978;2023-08-21T22:58:31;23.80;53.00
77277;DHT22;66330;52.166;9.978;2023-08-21T23:00:57;23.80;53.10
77277;DHT22;66330;52.166;9.978;2023-08-21T23:03:23;23.80;53.10
77277;DHT22;66330;52.166;9.978;2023-08-21T23:05:55;23.80;53.10
77277;DHT22;66330;52.166;9.978;2023-08-21T23:08:23;23.80;53.20
77277;DHT22;66330;52.166;9.978;2023-08-21T23:10:49;23.70;53.10
77277;DHT22;66330;52.166;9.978;2023-08-21T23:13:14;23.70;53.20
77277;DHT22;66330;52.166;9.978;2023-08-21T23:15:46;23.60;53.20
77277;DHT22;66330;52.166;9.978;2023-08-21T23:18:12;23.60;53.30
77277;DHT22;66330;52.166;9.978;2023-08-21T23:20:38;23.60;53.40
77277;DHT22;66330;52.166;9.978;2023-08-21T23:23:04;23.60;53.50
77277;DHT22;66330;52.166;9.978;2023-08-21T23:25:30;23.60;53.50
77277;DHT22;66330;52.166;9.978;2023-08-21T23:27:56;23.60;53.60
77277;DHT22;66330;52.166;9.978;2023-08-21T23:30:22;23.60;53.60
77277;DHT22;66330;52.166;9.978;2023-08-21T23:32:48;23.60;53.70
77277;DHT22;66330;52.166;9.978;2023-08-21T23:35:14;23.60;54.20
77277;DHT22;66330;52.166;9.978;2023-08-21T23:37:40;23.60;53.70
77277;DHT22;66330;52.166;9.978;2023-08-21T23:40:07;23.60;53.70
77277;DHT22;66330;52.166;9.978;2023-08-21T23:42:35;23.50;53.60
77277;DHT22;66330;52.166;9.978;2023-08-21T23:45:01;23.50;53.80
77277;DHT22;66330;52.166;9.978;2023-08-21T23:47:26;23.50;53.80
77277;DHT22;66330;52.166;9.978;2023-08-21T23:49:52;23.50;53.90
77277;DHT22;66330;52.166;9.978;2023-08-21T23:52:18;23.40;54.00
77277;DHT22;66330;52.166;9.978;2023-08-21T23:54:44;23.40;54.10
77277;DHT22;66330;52.166;9.978;2023-08-21T23:57:09;23.40;54.10
77277;DHT22;66330;52.166;9.978;2023-08-21T23:59:35;23.40;54.20
